Time;durP1;ratioP1;P1;durP2;ratioP2;P2;SDS_P1;SDS_P2;PMS_P1;PMS_P2;Temp;Humidity;BMP_temperature;BMP_pressure;BME280_temperature;BME280_humidity;BME280_pressure;Samples;Min_cycle;Max_cycle;Signal;HPM_P1;HPM_P2
2022/01/10 00:00:48;;;;;;;30.73;11.38;;;;;;;-0.88;93.84;101075.44;5039888;28;20021;-87
2022/01/10 00:03:14;;;;;;;23.58;9.98;;;;;;;-0.91;93.58;101071.91;5038488;28;20049;-87
2022/01/10 00:05:40;;;;;;;28.30;10.80;;;;;;;-0.94;94.06;101077.00;5043216;28;20026;-88
2022/01/10 00:08:05;;;;;;;27.50;11.02;;;;;;;-0.94;93.55;101087.38;5007392;28;20041;-88
2022/01/10 00:10:32;;;;;;;25.45;10.75;;;;;;;-0.93;93.76;101096.97;5014066;28;20098;-87
2022/01/10 00:12:58;;;;;;;22.60;10.77;;;;;;;-0.94;93.65;101101.28;5051446;28;20055;-87
2022/01/10 00:15:24;;;;;;;18.90;10.27;;;;;;;-0.93;93.80;101104.75;5034397;28;20056;-88
2022/01/10 00:17:49;;;;;;;22.52;10.90;;;;;;;-0.96;93.40;101110.75;5033148;28;20033;-87
2022/01/10 00:20:18;;;;;;;21.25;10.45;;;;;;;-0.98;93.89;101114.16;5025460;28;20116;-88
2022/01/10 00:22:49;;;;;;;26.90;10.88;;;;;;;-1.01;94.02;101116.66;5014428;28;20123;-88
2022/01/10 00:25:22;;;;;;;32.10;9.88;;;;;;;-1.02;94.12;101117.47;5019929;28;20136;-87
2022/01/10 00:27:49;;;;;;;26.13;11.15;;;;;;;-1.05;94.60;101120.00;5013336;28;20041;-87
2022/01/10 00:30:15;;;;;;;25.05;10.73;;;;;;;-1.06;93.90;101118.22;5042796;28;20103;-87
2022/01/10 00:32:43;;;;;;;28.30;10.63;;;;;;;-1.12;94.19;101122.41;5041194;28;20051;-87
2022/01/10 00:35:09;;;;;;;21.95;10.43;;;;;;;-1.12;94.41;101121.53;5031661;28;20061;-87
2022/01/10 00:37:35;;;;;;;25.20;11.25;;;;;;;-1.11;94.27;101118.97;5034182;28;20033;-87
2022/01/10 00:40:04;;;;;;;22.27;11.00;;;;;;;-1.10;94.50;101119.84;5019550;28;20112;-87
2022/01/10 00:42:30;;;;;;;26.67;12.02;;;;;;;-1.11;94.88;101134.56;5022055;28;20034;-87
2022/01/10 00:45:00;;;;;;;33.20;11.95;;;;;;;-1.16;94.52;101127.50;5013609;28;20059;-87
2022/01/10 00:47:25;;;;;;;30.52;11.35;;;;;;;-1.17;94.47;101129.19;5038532;28;20064;-87
2022/01/10 00:49:51;;;;;;;22.75;10.93;;;;;;;-1.16;94.61;101136.16;5047717;28;20092;-88
2022/01/10 00:52:16;;;;;;;22.88;12.95;;;;;;;-1.18;94.92;101140.41;5035805;28;20037;-87
2022/01/10 00:54:42;;;;;;;26.90;12.10;;;;;;;-1.22;94.76;101140.28;5024089;28;20045;-87
2022/01/10 00:57:07;;;;;;;28.80;11.98;;;;;;;-1.21;95.30;101149.81;4997378;28;20057;-87
2022/01/10 00:59:33;;;;;;;26.65;12.38;;;;;;;-1.21;95.18;101148.13;5015858;28;20503;-87
2022/01/10 01:01:58;;;;;;;25.33;12.15;;;;;;;-1.21;95.26;101150.72;5033048;28;20056;-87
2022/01/10 01:04:24;;;;;;;31.30;12.25;;;;;;;-1.22;95.43;101164.53;5042753;28;20071;-87
2022/01/10 01:06:50;;;;;;;28.23;11.43;;;;;;;-1.26;94.87;101175.69;5037160;28;20429;-87
2022/01/10 01:09:21;;;;;;;31.48;12.65;;;;;;;-1.31;94.81;101180.75;5029387;28;20257;-87
2022/01/10 01:14:25;;;;;;;27.05;12.18;;;;;;;-1.34;94.76;101184.94;5044189;28;20102;-87
2022/01/10 01:17:09;;;;;;;26.33;11.85;;;;;;;-1.37;94.89;101188.31;5008479;28;20040;-86
2022/01/10 01:25:04;;;;;;;20.20;11.35;;;;;;;-1.43;94.87;101213.25;5015707;28;20076;-87
2022/01/10 01:27:30;;;;;;;21.63;11.23;;;;;;;-1.41;95.02;101214.16;5043086;28;20033;-87
2022/01/10 01:29:55;;;;;;;24.85;11.00;;;;;;;-1.44;94.95;101209.72;5040086;28;20414;-87
2022/01/10 01:32:21;;;;;;;21.48;11.65;;;;;;;-1.50;94.19;101201.75;5042315;28;20095;-86
2022/01/10 01:34:46;;;;;;;24.67;12.35;;;;;;;-1.49;94.38;101208.69;5039787;28;20037;-87
2022/01/10 01:37:12;;;;;;;21.80;13.05;;;;;;;-1.47;94.46;101221.75;5042506;28;20093;-87
2022/01/10 01:39:38;;;;;;;32.15;13.40;;;;;;;-1.42;95.72;101230.56;5050844;28;20017;-86
2022/01/10 01:42:31;;;;;;;26.33;14.40;;;;;;;-1.37;96.22;101229.88;5043045;28;20128;-87
2022/01/10 01:44:50;;;;;;;29.23;13.50;;;;;;;-1.34;96.34;101232.56;5033064;28;20395;-87
2022/01/10 01:47:16;;;;;;;32.35;13.73;;;;;;;-1.32;95.93;101232.63;5016923;28;20057;-87
2022/01/10 01:49:42;;;;;;;31.02;12.95;;;;;;;-1.34;95.53;101247.28;5033247;28;20037;-87
2022/01/10 01:52:08;;;;;;;25.17;13.20;;;;;;;-1.34;95.68;101253.38;5017003;28;20068;-87
2022/01/10 01:54:33;;;;;;;38.35;15.27;;;;;;;-1.32;96.60;101262.09;5033192;28;20499;-87
2022/01/10 01:57:00;;;;;;;35.58;15.25;;;;;;;-1.29;96.93;101258.72;5016717;28;20143;-87
2022/01/10 01:59:26;;;;;;;35.63;15.38;;;;;;;-1.22;97.14;101267.59;5016721;28;20124;-87
2022/01/10 02:01:52;;;;;;;32.53;15.55;;;;;;;-1.21;97.43;101269.34;5016595;28;20057;-87
2022/01/10 02:04:17;;;;;;;30.90;13.60;;;;;;;-1.21;96.95;101262.47;5032831;28;20049;-86
2022/01/10 02:06:45;;;;;;;32.35;14.98;;;;;;;-1.24;96.60;101261.47;5000459;28;20140;-87
2022/01/10 02:09:14;;;;;;;45.15;15.93;;;;;;;-1.22;96.70;101271.09;5000090;28;20553;-87
2022/01/10 02:11:41;;;;;;;26.85;13.68;;;;;;;-1.24;96.48;101272.75;5016521;28;20064;-86
2022/01/10 02:14:08;;;;;;;25.70;13.48;;;;;;;-1.25;96.80;101276.19;5016186;28;20616;-87
2022/01/10 02:16:51;;;;;;;25.45;13.45;;;;;;;-1.27;96.26;101275.25;5032986;28;20034;-87
2022/01/10 02:19:28;;;;;;;27.83;14.32;;;;;;;-1.26;96.28;101281.31;5005732;28;20045;-87
2022/01/10 02:21:54;;;;;;;35.33;16.45;;;;;;;-1.26;96.52;101277.03;4999637;28;20534;-87
2022/01/10 02:24:23;;;;;;;33.92;15.18;;;;;;;-1.21;96.66;101282.34;5016125;28;20036;-87
2022/01/10 02:26:50;;;;;;;40.40;16.80;;;;;;;-1.20;96.91;101285.00;5032397;28;20393;-86
2022/01/10 02:29:16;;;;;;;33.95;16.92;;;;;;;-1.14;97.21;101290.44;5015760;28;20137;-87
2022/01/10 02:31:43;;;;;;;28.20;15.80;;;;;;;-1.12;97.37;101288.75;5044713;28;20147;-87
2022/01/10 02:34:09;;;;;;;34.45;16.35;;;;;;;-1.04;97.80;101312.38;5052097;28;20040;-87
2022/01/10 02:36:36;;;;;;;28.95;15.50;;;;;;;-1.03;97.65;101311.56;5035801;28;20392;-87
2022/01/10 02:39:08;;;;;;;31.00;15.02;;;;;;;-1.03;97.28;101308.09;5019081;28;20079;-87
2022/01/10 02:41:42;;;;;;;28.63;15.00;;;;;;;-1.03;97.43;101323.69;5052062;28;20319;-87
2022/01/10 02:44:13;;;;;;;45.03;15.63;;;;;;;-1.03;97.21;101323.69;5035753;28;20106;-87
2022/01/10 02:46:39;;;;;;;32.55;14.95;;;;;;;-1.01;97.14;101319.44;5051982;28;20465;-87
2022/01/10 02:49:26;;;;;;;41.00;16.35;;;;;;;-0.94;97.65;101337.88;5021771;28;20513;-86
2022/01/10 02:51:53;;;;;;;38.55;16.95;;;;;;;-0.87;98.59;101342.44;5051556;28;20037;-86
2022/01/10 02:54:22;;;;;;;35.05;17.83;;;;;;;-0.83;99.11;101350.34;5052254;28;20051;-87
2022/01/10 02:56:51;;;;;;;34.92;16.42;;;;;;;-0.83;98.66;101351.22;5051785;28;20041;-86
2022/01/10 02:59:18;;;;;;;36.55;16.65;;;;;;;-0.80;98.49;101363.44;5053068;28;20036;-86
2022/01/10 03:01:45;;;;;;;36.95;16.50;;;;;;;-0.76;98.55;101360.97;5051744;28;20082;-86
2022/01/10 03:04:11;;;;;;;29.15;14.57;;;;;;;-0.75;98.24;101354.94;5035162;28;20040;-86
2022/01/10 03:06:38;;;;;;;28.30;15.63;;;;;;;-0.74;98.18;101358.41;5018214;28;20077;-87
2022/01/10 03:09:06;;;;;;;35.40;17.88;;;;;;;-0.70;98.42;101361.16;5051784;28;20033;-87
2022/01/10 03:11:33;;;;;;;35.50;16.55;;;;;;;-0.68;98.56;101372.50;5035440;28;20048;-86
2022/01/10 03:14:00;;;;;;;37.97;18.08;;;;;;;-0.63;98.29;101379.59;5035231;28;20041;-86
2022/01/10 03:16:25;;;;;;;45.05;17.83;;;;;;;-0.60;98.47;101382.28;5035257;28;20068;-86
2022/01/10 03:18:51;;;;;;;27.80;15.38;;;;;;;-0.58;98.34;101375.41;5035174;28;20465;-86
2022/01/10 03:21:19;;;;;;;31.50;17.48;;;;;;;-0.53;98.84;101381.66;5036373;28;20128;-86
2022/01/10 03:23:46;;;;;;;31.45;16.90;;;;;;;-0.56;98.15;101374.63;5022509;28;20076;-86
2022/01/10 03:26:11;;;;;;;42.97;18.58;;;;;;;-0.48;98.68;101387.88;5034571;28;20120;-86
2022/01/10 03:28:37;;;;;;;42.35;17.80;;;;;;;-0.46;98.72;101394.91;5034687;28;20133;-86
2022/01/10 03:31:03;;;;;;;49.95;18.35;;;;;;;-0.42;98.85;101390.69;5035061;28;20041;-86
2022/01/10 03:33:28;;;;;;;33.78;16.55;;;;;;;-0.38;98.84;101394.25;5034758;28;20037;-86
2022/01/10 03:35:54;;;;;;;33.30;16.40;;;;;;;-0.35;98.67;101395.22;5051401;28;20052;-86
2022/01/10 03:38:21;;;;;;;40.80;17.05;;;;;;;-0.34;98.35;101397.00;5034852;28;20072;-86
2022/01/10 03:40:47;;;;;;;36.00;15.82;;;;;;;-0.33;98.09;101403.09;5051409;28;20464;-86
2022/01/10 03:43:17;;;;;;;40.20;17.13;;;;;;;-0.30;98.37;101411.88;5051150;28;20040;-86
2022/01/10 03:45:43;;;;;;;30.52;16.85;;;;;;;-0.28;98.83;101420.59;5034564;28;20443;-86
2022/01/10 03:48:10;;;;;;;33.90;17.35;;;;;;;-0.26;98.44;101429.34;5018472;28;20041;-86
2022/01/10 03:50:36;;;;;;;27.42;16.10;;;;;;;-0.25;98.66;101430.22;5034443;28;20116;-87
2022/01/10 03:53:01;;;;;;;28.38;14.35;;;;;;;-0.23;98.31;101436.38;5051246;28;20481;-86
2022/01/10 03:55:27;;;;;;;31.25;16.13;;;;;;;-0.24;97.89;101437.22;5051238;28;20033;-86
2022/01/10 03:57:54;;;;;;;25.60;14.52;;;;;;;-0.22;97.94;101446.84;5050996;28;20032;-86
2022/01/10 04:00:20;;;;;;;26.10;14.70;;;;;;;-0.23;97.94;101439.84;5034403;28;20508;-87
2022/01/10 04:02:53;;;;;;;32.33;16.00;;;;;;;-0.22;98.08;101452.06;5050524;28;20048;-86
2022/01/10 04:05:24;;;;;;;32.40;16.98;;;;;;;-0.20;98.28;101461.63;5034950;28;20033;-87
2022/01/10 04:07:50;;;;;;;47.67;18.00;;;;;;;-0.17;98.37;101456.50;5033587;28;20052;-87
2022/01/10 04:10:15;;;;;;;39.53;17.40;;;;;;;-0.15;98.48;101470.47;5037350;28;20505;-87
2022/01/10 04:12:41;;;;;;;44.45;16.75;;;;;;;-0.11;98.27;101459.31;5014130;28;20473;-86
2022/01/10 04:15:08;;;;;;;36.00;17.33;;;;;;;-0.12;98.35;101467.97;5030641;28;20050;-87
2022/01/10 04:17:35;;;;;;;33.10;15.90;;;;;;;-0.09;97.96;101468.06;4982318;28;20033;-87
2022/01/10 04:20:01;;;;;;;30.92;16.30;;;;;;;-0.07;98.30;101469.88;5030509;28;20091;-87
2022/01/10 04:22:27;;;;;;;25.88;13.93;;;;;;;-0.05;98.19;101475.13;5030916;28;20444;-87
2022/01/10 04:24:53;;;;;;;42.63;15.85;;;;;;;-0.04;98.15;101474.28;5014487;28;20045;-87
2022/01/10 04:27:18;;;;;;;37.05;16.38;;;;;;;-0.06;98.30;101484.66;5014176;28;20460;-87
2022/01/10 04:29:44;;;;;;;36.95;15.82;;;;;;;-0.04;98.09;101482.97;4997760;28;20038;-87
2022/01/10 04:32:11;;;;;;;38.58;17.52;;;;;;;-0.02;98.49;101499.53;5014186;28;20041;-86
2022/01/10 04:34:38;;;;;;;35.08;16.77;;;;;;;-0.01;98.70;101501.31;5030561;28;20060;-87
2022/01/10 04:37:04;;;;;;;27.35;15.27;;;;;;;-0.02;98.50;101507.34;5030477;28;20516;-87
2022/01/10 04:39:30;;;;;;;32.80;15.82;;;;;;;-0.02;98.29;101514.28;5014099;28;20061;-87
2022/01/10 04:41:56;;;;;;;31.25;15.27;;;;;;;-0.02;98.08;101515.16;5013867;28;20078;-87
2022/01/10 04:44:22;;;;;;;32.72;15.45;;;;;;;0.01;97.97;101527.41;4981473;28;20087;-86
2022/01/10 04:46:47;;;;;;;32.45;14.52;;;;;;;0.04;98.03;101534.44;5013948;28;20480;-87
2022/01/10 04:49:21;;;;;;;37.67;16.15;;;;;;;0.04;97.94;101531.81;4997180;28;20072;-87
2022/01/10 04:51:49;;;;;;;34.72;16.02;;;;;;;0.05;97.77;101544.00;5014499;28;20152;-87
2022/01/10 04:54:15;;;;;;;37.13;15.82;;;;;;;0.05;97.61;101546.59;5013638;28;20378;-87
2022/01/10 04:56:41;;;;;;;31.42;15.10;;;;;;;0.05;97.76;101549.19;5013583;28;20129;-87
2022/01/10 04:59:07;;;;;;;30.08;15.57;;;;;;;0.03;97.64;101543.09;5035739;28;20195;-87
2022/01/10 05:01:33;;;;;;;31.42;14.43;;;;;;;0.03;97.65;101553.50;5029682;28;20038;-87
2022/01/10 05:04:00;;;;;;;31.20;14.40;;;;;;;0.03;97.84;101572.59;4997434;28;20033;-87
2022/01/10 05:06:26;;;;;;;40.17;17.48;;;;;;;0.03;98.09;101551.78;4997263;28;20049;-87
2022/01/10 05:08:52;;;;;;;38.70;16.92;;;;;;;0.03;98.24;101572.59;5013377;28;20470;-87
2022/01/10 05:11:35;;;;;;;34.30;16.25;;;;;;;0.03;97.98;101572.59;5000968;28;20355;-87
2022/01/10 05:14:01;;;;;;;36.67;15.98;;;;;;;0.09;97.86;101578.00;5029433;28;20037;-87
2022/01/10 05:16:26;;;;;;;30.98;14.60;;;;;;;0.06;97.75;101580.50;5029854;28;20107;-87
2022/01/10 05:18:52;;;;;;;35.78;16.13;;;;;;;0.06;98.06;101582.25;5013316;28;20045;-87
2022/01/10 05:21:20;;;;;;;29.75;15.55;;;;;;;0.12;97.94;101601.53;4996901;28;20041;-87
2022/01/10 05:23:46;;;;;;;34.53;16.42;;;;;;;0.11;97.82;101596.28;4997122;28;20338;-87
2022/01/10 05:26:11;;;;;;;34.70;16.58;;;;;;;0.12;97.98;101611.06;5029540;28;20029;-87
2022/01/10 05:28:39;;;;;;;26.38;14.23;;;;;;;0.12;97.76;101608.47;4997256;28;20393;-87
2022/01/10 05:31:04;;;;;;;33.88;15.23;;;;;;;0.12;98.02;101608.47;5013216;28;20125;-87
2022/01/10 05:33:38;;;;;;;37.15;15.30;;;;;;;0.11;97.57;101610.19;4999059;28;20033;-87
2022/01/10 05:36:04;;;;;;;35.20;15.75;;;;;;;0.13;97.73;101612.88;4996715;28;20045;-87
2022/01/10 05:38:30;;;;;;;36.92;16.38;;;;;;;0.12;98.20;101622.38;5029355;28;20082;-86
2022/01/10 05:40:55;;;;;;;32.33;16.23;;;;;;;0.15;97.93;101639.84;4996563;28;20091;-87
2022/01/10 05:43:21;;;;;;;27.10;14.90;;;;;;;0.15;97.99;101648.53;5013339;28;20037;-87
2022/01/10 05:45:49;;;;;;;41.47;16.17;;;;;;;0.16;98.13;101650.31;5029263;28;20040;-87
2022/01/10 05:48:22;;;;;;;36.90;15.52;;;;;;;0.15;98.00;101651.16;5033871;28;20056;-87
2022/01/10 05:50:49;;;;;;;27.95;13.15;;;;;;;0.17;97.71;101657.31;5029074;28;20036;-87
2022/01/10 05:53:17;;;;;;;29.02;14.82;;;;;;;0.15;97.48;101658.97;5029322;28;20041;-87
2022/01/10 05:55:43;;;;;;;30.05;15.63;;;;;;;0.16;97.32;101667.66;5029204;28;20037;-87
2022/01/10 05:58:13;;;;;;;32.85;16.48;;;;;;;0.17;97.73;101675.53;5029225;28;20061;-87
2022/01/10 06:00:40;;;;;;;31.75;15.68;;;;;;;0.19;97.60;101663.41;5030445;28;20389;-87
2022/01/10 06:03:05;;;;;;;30.45;14.23;;;;;;;0.21;97.78;101666.09;5029481;28;20037;-87
2022/01/10 06:05:37;;;;;;;32.40;14.40;;;;;;;0.21;97.10;101663.47;4998008;28;20048;-87
2022/01/10 06:08:06;;;;;;;29.58;14.00;;;;;;;0.23;97.45;101672.25;5029033;28;20115;-87
2022/01/10 06:10:35;;;;;;;30.13;14.45;;;;;;;0.24;97.52;101678.31;5012763;28;20030;-87
2022/01/10 06:13:30;;;;;;;32.67;14.05;;;;;;;0.23;97.86;101684.38;5029336;28;20045;-87
2022/01/10 06:15:56;;;;;;;32.50;16.00;;;;;;;0.23;97.64;101679.19;5012744;28;20036;-87
2022/01/10 06:18:22;;;;;;;21.92;12.30;;;;;;;0.25;97.52;101687.91;5028985;28;20037;-88
2022/01/10 06:20:48;;;;;;;25.25;13.85;;;;;;;0.26;97.63;101705.31;4996114;28;20033;-87
2022/01/10 06:23:13;;;;;;;29.77;15.38;;;;;;;0.26;97.71;101706.19;4996309;28;20092;-88
2022/01/10 06:25:40;;;;;;;37.85;14.60;;;;;;;0.28;97.59;101716.69;5016936;28;20037;-87
2022/01/10 06:28:08;;;;;;;31.25;15.18;;;;;;;0.28;97.58;101714.09;5016119;28;20374;-87
2022/01/10 06:30:34;;;;;;;33.50;16.05;;;;;;;0.31;97.68;101724.59;5032332;28;20053;-88
2022/01/10 06:33:01;;;;;;;34.15;16.27;;;;;;;0.30;97.73;101728.06;5016198;28;20041;-88
2022/01/10 06:35:27;;;;;;;40.25;15.48;;;;;;;0.30;97.55;101735.88;4999771;28;20059;-88
2022/01/10 06:37:53;;;;;;;33.45;15.95;;;;;;;0.31;97.70;101743.72;5016120;28;20033;-88
2022/01/10 06:40:19;;;;;;;30.27;15.52;;;;;;;0.32;97.45;101748.13;5015958;28;20075;-89
2022/01/10 06:42:47;;;;;;;29.15;15.98;;;;;;;0.31;97.95;101743.72;5031787;28;20074;-87
2022/01/10 06:45:14;;;;;;;34.92;16.25;;;;;;;0.34;98.02;101758.56;5015162;28;20084;-90
2022/01/10 06:47:40;;;;;;;35.40;15.65;;;;;;;0.34;97.63;101756.84;5015468;28;20034;-89
2022/01/10 06:50:08;;;;;;;39.53;18.30;;;;;;;0.34;97.71;101753.34;5032373;28;20041;-89
2022/01/10 06:52:39;;;;;;;32.25;15.70;;;;;;;0.33;97.68;101751.59;5016857;28;20037;-86
2022/01/10 06:55:05;;;;;;;28.38;14.68;;;;;;;0.34;97.97;101762.06;5015703;28;20048;-84
2022/01/10 06:57:31;;;;;;;33.92;16.33;;;;;;;0.37;98.00;101764.78;5015403;28;20186;-87
2022/01/10 06:59:58;;;;;;;41.95;16.63;;;;;;;0.37;97.62;101770.00;4999016;28;20037;-86
2022/01/10 07:02:24;;;;;;;37.88;16.80;;;;;;;0.39;97.70;101776.13;5015085;28;20136;-86
2022/01/10 07:04:52;;;;;;;32.00;16.38;;;;;;;0.40;97.67;101785.72;5015299;28;20026;-86
2022/01/10 07:07:18;;;;;;;32.13;16.27;;;;;;;0.40;97.77;101795.28;5015196;28;20045;-85
2022/01/10 07:09:47;;;;;;;33.17;16.10;;;;;;;0.38;97.51;101800.41;5015170;28;20038;-85
2022/01/10 07:12:13;;;;;;;35.10;17.40;;;;;;;0.38;97.35;101790.00;5014511;28;20095;-85
2022/01/10 07:14:49;;;;;;;28.08;14.68;;;;;;;0.39;97.06;101799.56;5016096;28;20046;-85
2022/01/10 07:17:15;;;;;;;32.97;15.20;;;;;;;0.40;97.24;101809.19;5032175;28;20128;-88
2022/01/10 07:19:41;;;;;;;32.53;15.73;;;;;;;0.40;97.42;101821.34;5014318;28;20061;-88
2022/01/10 07:22:11;;;;;;;30.02;15.85;;;;;;;0.38;97.45;101821.28;5014859;28;20045;-89
2022/01/10 07:24:39;;;;;;;39.20;17.80;;;;;;;0.38;97.45;101826.47;5014045;28;20083;-89
2022/01/10 07:27:05;;;;;;;39.30;16.67;;;;;;;0.38;97.48;101834.28;5014014;28;20037;-90
2022/01/10 07:29:31;;;;;;;39.33;19.20;;;;;;;0.35;97.41;101838.53;5031523;28;20381;-88
2022/01/10 07:31:56;;;;;;;36.42;17.90;;;;;;;0.35;97.74;101843.72;5013679;28;20022;-87
2022/01/10 07:34:24;;;;;;;32.63;16.55;;;;;;;0.35;97.34;101852.44;4997588;28;20057;-90
2022/01/10 07:36:50;;;;;;;31.83;16.35;;;;;;;0.35;97.67;101859.38;4996429;28;20381;-90
2022/01/10 07:39:16;;;;;;;36.67;18.77;;;;;;;0.36;97.43;101864.63;5030813;28;20088;-90
2022/01/10 07:41:41;;;;;;;33.58;17.50;;;;;;;0.37;97.22;101868.09;5032000;28;20117;-89
2022/01/10 07:44:12;;;;;;;34.30;16.25;;;;;;;0.37;97.49;101869.00;5014358;28;20060;-89
2022/01/10 07:46:38;;;;;;;34.13;17.42;;;;;;;0.32;97.54;101867.97;4980998;28;20052;-89
2022/01/10 07:49:04;;;;;;;39.80;16.85;;;;;;;0.32;96.77;101877.47;5031366;28;20037;-88
2022/01/10 07:51:30;;;;;;;35.67;15.85;;;;;;;0.31;96.57;101886.13;5014055;28;20037;-89
2022/01/10 07:53:55;;;;;;;53.05;17.75;;;;;;;0.27;97.17;101885.13;5030756;28;20067;-89
2022/01/10 07:56:21;;;;;;;37.22;18.17;;;;;;;0.26;96.93;101890.28;5031574;28;20489;-85
2022/01/10 07:58:50;;;;;;;43.85;16.95;;;;;;;0.27;96.99;101902.47;5030615;28;20107;-88
2022/01/10 08:01:16;;;;;;;31.75;15.30;;;;;;;0.20;97.02;101890.97;5030736;28;20033;-86
2022/01/10 08:03:41;;;;;;;36.60;16.67;;;;;;;0.20;96.96;101910.06;5030343;28;20038;-88
2022/01/10 08:06:07;;;;;;;33.20;17.10;;;;;;;0.19;97.13;101915.22;5013643;28;20056;-87
2022/01/10 08:08:33;;;;;;;33.55;17.80;;;;;;;0.21;97.44;101916.16;5030047;28;20095;-86
2022/01/10 08:10:59;;;;;;;36.92;16.83;;;;;;;0.20;96.92;101915.28;5013829;28;20041;-87
2022/01/10 08:13:25;;;;;;;38.38;17.83;;;;;;;0.23;97.14;101937.97;5030304;28;20038;-87
2022/01/10 08:15:51;;;;;;;33.72;16.85;;;;;;;0.19;96.97;101939.53;5013631;28;20055;-87
2022/01/10 08:18:17;;;;;;;34.13;18.05;;;;;;;0.16;96.46;101935.94;5030262;28;20048;-87
2022/01/10 08:20:43;;;;;;;30.15;16.60;;;;;;;0.22;96.48;101957.00;5013707;28;20025;-84
2022/01/10 08:23:13;;;;;;;30.10;16.20;;;;;;;0.13;96.91;101943.66;5031004;28;20033;-86
2022/01/10 08:25:38;;;;;;;32.97;17.00;;;;;;;0.24;97.12;101959.69;5029854;28;20172;-86
2022/01/10 08:28:04;;;;;;;36.45;16.52;;;;;;;0.20;96.62;101954.34;5029879;28;20120;-87
2022/01/10 08:31:21;;;;;;;32.42;15.77;;;;;;;0.26;96.89;101958.91;5013579;28;20052;-86
2022/01/10 08:33:53;;;;;;;32.05;16.45;;;;;;;0.19;96.63;101962.97;5029790;28;20065;-83
2022/01/10 08:36:19;;;;;;;29.88;17.27;;;;;;;0.19;97.23;101969.91;5029608;28;20045;-85
2022/01/10 08:38:47;;;;;;;31.20;15.93;;;;;;;0.27;97.03;101991.06;5013238;28;20021;-84
2022/01/10 08:41:13;;;;;;;35.20;16.95;;;;;;;0.29;97.20;101998.09;5013255;28;20116;-84
2022/01/10 08:43:38;;;;;;;32.40;16.65;;;;;;;0.31;97.45;102006.00;5031288;28;20420;-84
2022/01/10 08:46:04;;;;;;;48.35;18.67;;;;;;;0.34;97.35;102012.19;5013513;28;20463;-84
2022/01/10 08:48:29;;;;;;;36.15;19.00;;;;;;;0.37;97.72;102020.16;5029239;28;20405;-85
2022/01/10 08:50:55;;;;;;;35.85;18.25;;;;;;;0.41;97.69;102024.63;5029509;28;20132;-85
2022/01/10 08:53:21;;;;;;;38.63;18.55;;;;;;;0.41;97.77;102027.22;5031107;28;20033;-85
2022/01/10 08:55:47;;;;;;;35.45;19.25;;;;;;;0.44;97.91;102023.84;5030997;28;20513;-84
2022/01/10 08:58:13;;;;;;;34.78;18.77;;;;;;;0.47;97.68;102034.44;5013003;28;20044;-84
2022/01/10 09:00:39;;;;;;;34.13;19.60;;;;;;;0.49;97.37;102037.94;5029042;28;20526;-82
2022/01/10 09:03:05;;;;;;;34.70;19.35;;;;;;;0.51;97.80;102038.91;5028791;28;20046;-82
2022/01/10 09:05:32;;;;;;;42.15;20.13;;;;;;;0.56;98.28;102046.91;5029116;28;20049;-83
2022/01/10 09:07:59;;;;;;;41.55;19.20;;;;;;;0.58;97.97;102047.84;5029003;28;20381;-83
2022/01/10 09:10:28;;;;;;;40.95;20.38;;;;;;;0.60;98.19;102048.81;5029059;28;20037;-83
2022/01/10 09:12:54;;;;;;;35.30;19.08;;;;;;;0.64;98.25;102049.00;5030471;28;20556;-82
2022/01/10 09:15:20;;;;;;;41.80;21.40;;;;;;;0.69;97.72;102056.97;5030418;28;20037;-83
2022/01/10 09:17:46;;;;;;;42.20;20.45;;;;;;;0.73;97.64;102065.81;5030903;28;20039;-84
2022/01/10 09:20:11;;;;;;;53.03;21.92;;;;;;;0.72;98.24;102067.53;5035999;28;20048;-84
2022/01/10 09:22:37;;;;;;;40.33;21.73;;;;;;;0.77;98.07;102071.19;5032223;28;20032;-82
2022/01/10 09:25:04;;;;;;;42.45;20.13;;;;;;;0.78;97.96;102067.75;5047994;28;20045;-83
2022/01/10 09:27:29;;;;;;;36.85;18.52;;;;;;;0.79;97.87;102068.63;5050189;28;20121;-83
2022/01/10 09:29:55;;;;;;;40.90;19.92;;;;;;;0.80;97.95;102079.13;5032289;28;20037;-83
2022/01/10 09:32:21;;;;;;;35.65;18.75;;;;;;;0.83;97.70;102078.34;5048857;28;20174;-85
2022/01/10 09:34:46;;;;;;;36.25;18.30;;;;;;;0.83;97.56;102076.63;5050438;28;20106;-84
2022/01/10 09:37:12;;;;;;;42.83;17.52;;;;;;;0.88;97.25;102079.41;5032453;28;20033;-84
2022/01/10 09:39:37;;;;;;;39.20;20.10;;;;;;;0.91;97.22;102083.84;5049069;28;20060;-84
2022/01/10 09:42:04;;;;;;;36.70;19.42;;;;;;;0.95;97.64;102090.97;5049222;28;20029;-84
2022/01/10 09:44:29;;;;;;;39.83;18.80;;;;;;;0.98;97.41;102094.56;5048681;28;20187;-85
2022/01/10 09:46:55;;;;;;;38.70;18.50;;;;;;;1.03;97.90;102089.53;5049279;28;20025;-84
2022/01/10 09:49:21;;;;;;;42.95;19.85;;;;;;;1.10;97.75;102090.66;5032333;28;20407;-85
2022/01/10 09:51:47;;;;;;;35.72;18.30;;;;;;;1.15;97.54;102096.94;5050389;28;20037;-85
2022/01/10 09:54:13;;;;;;;39.17;19.50;;;;;;;1.23;97.71;102098.09;5049458;28;20032;-85
2022/01/10 09:56:39;;;;;;;34.90;18.65;;;;;;;1.26;97.57;102099.09;5048841;28;20364;-84
2022/01/10 09:59:05;;;;;;;36.08;18.85;;;;;;;1.34;97.74;102109.81;5012720;28;20038;-85
2022/01/10 10:01:32;;;;;;;35.38;19.20;;;;;;;1.38;97.40;102116.03;5033431;28;20104;-85
2022/01/10 10:03:59;;;;;;;37.75;18.40;;;;;;;1.44;97.15;102121.47;5033086;28;20116;-85
2022/01/10 10:06:30;;;;;;;32.13;15.85;;;;;;;1.48;97.29;102132.09;5034333;28;20436;-84
2022/01/10 10:09:00;;;;;;;36.15;18.50;;;;;;;1.53;96.43;102142.66;5032705;28;20647;-84
2022/01/10 10:11:48;;;;;;;33.50;18.08;;;;;;;1.60;96.82;102142.06;5033041;28;20061;-85
2022/01/10 10:14:17;;;;;;;33.90;17.70;;;;;;;1.68;96.94;102150.16;5034190;28;20025;-84
2022/01/10 10:16:50;;;;;;;41.55;18.75;;;;;;;1.72;96.64;102150.31;5032800;28;20124;-83
2022/01/10 10:19:28;;;;;;;38.20;19.50;;;;;;;1.78;96.84;102161.81;5017444;28;20097;-83
2022/01/10 10:21:56;;;;;;;35.13;18.83;;;;;;;1.83;96.88;102161.19;5032132;28;20045;-84
2022/01/10 10:24:23;;;;;;;39.60;19.00;;;;;;;1.93;97.23;102165.88;5033512;28;20032;-85
2022/01/10 10:26:49;;;;;;;35.97;18.75;;;;;;;2.01;96.71;102168.75;5032295;28;20041;-84
2022/01/10 10:29:17;;;;;;;57.88;20.17;;;;;;;2.09;96.80;102182.97;5033319;28;20172;-85
2022/01/10 10:31:55;;;;;;;71.57;21.63;;;;;;;2.17;97.00;102179.72;5032351;28;20042;-85
2022/01/10 10:34:29;;;;;;;36.38;17.67;;;;;;;2.19;95.50;102180.66;5033877;28;20094;-85
2022/01/10 10:37:03;;;;;;;28.77;17.35;;;;;;;2.25;95.62;102184.38;5032588;28;20397;-85
2022/01/10 10:39:30;;;;;;;34.85;17.95;;;;;;;2.31;95.76;102186.31;5032435;28;20038;-85
2022/01/10 10:42:00;;;;;;;34.53;18.50;;;;;;;2.39;95.77;102190.06;5015904;28;20053;-84
2022/01/10 10:44:26;;;;;;;31.88;17.05;;;;;;;2.46;95.38;102192.03;5015731;28;20067;-84
2022/01/10 10:46:51;;;;;;;37.50;17.52;;;;;;;2.49;94.67;102192.13;5033719;28;20033;-85
2022/01/10 10:49:22;;;;;;;35.30;17.67;;;;;;;2.54;94.14;102189.69;5013011;28;20450;-85
2022/01/10 10:51:50;;;;;;;31.10;16.67;;;;;;;2.61;93.48;102199.50;5032155;28;20033;-84
2022/01/10 10:54:17;;;;;;;30.55;16.95;;;;;;;2.61;93.97;102199.50;5032274;28;20108;-85
2022/01/10 10:56:44;;;;;;;34.95;18.48;;;;;;;2.73;93.83;102201.63;5015826;28;20047;-85
2022/01/10 10:59:11;;;;;;;30.83;18.17;;;;;;;2.85;94.38;102198.53;5015560;28;20045;-85
2022/01/10 11:01:38;;;;;;;31.55;17.98;;;;;;;2.97;93.83;102201.53;5015623;28;20472;-85
2022/01/10 11:04:05;;;;;;;46.13;19.40;;;;;;;3.11;94.06;102217.63;5031757;28;20073;-84
2022/01/10 11:06:32;;;;;;;35.58;18.15;;;;;;;3.16;93.10;102216.03;5033060;28;20026;-85
2022/01/10 11:09:01;;;;;;;35.72;18.15;;;;;;;3.25;93.03;102220.69;5031647;28;20382;-84
2022/01/10 11:11:28;;;;;;;33.22;17.27;;;;;;;3.33;91.77;102230.53;5014965;28;20091;-85
2022/01/10 11:13:56;;;;;;;34.80;17.45;;;;;;;3.40;92.40;102221.16;5031744;28;20458;-85
2022/01/10 11:16:25;;;;;;;33.75;17.75;;;;;;;3.44;91.71;102228.25;5015485;28;20033;-84
2022/01/10 11:18:51;;;;;;;32.00;16.73;;;;;;;3.52;89.82;102226.75;5031741;28;20048;-85
2022/01/10 11:21:17;;;;;;;33.25;16.85;;;;;;;3.43;88.05;102227.34;5046901;28;20049;-85
2022/01/10 11:23:45;;;;;;;29.83;17.15;;;;;;;3.46;89.83;102239.63;5034471;28;20044;-85